createdAt,value
2023-04-16T15:01:08.002Z,9.68
2023-04-16T15:02:10.841Z,9.71
2023-04-16T15:03:13.191Z,9.70
2023-04-16T15:04:15.330Z,9.69
2023-04-16T15:05:17.504Z,9.67
2023-04-16T15:06:19.361Z,9.68
2023-04-16T15:07:22.239Z,9.63
2023-04-16T15:08:24.712Z,9.62
2023-04-16T15:09:29.975Z,9.59
2023-04-16T15:10:32.944Z,9.57
2023-04-16T15:11:35.119Z,9.56
2023-04-16T15:12:37.953Z,9.54
2023-04-16T15:13:40.051Z,9.51
2023-04-16T15:14:43.388Z,9.46
2023-04-16T15:15:45.474Z,9.44
2023-04-16T15:16:48.031Z,9.43
2023-04-16T15:17:51.096Z,9.40
2023-04-16T15:18:53.099Z,9.38
2023-04-16T15:19:55.012Z,9.37
2023-04-16T15:20:56.961Z,9.37
2023-04-16T15:21:59.403Z,9.36
2023-04-16T15:23:01.589Z,9.36
2023-04-16T15:24:03.629Z,9.32
2023-04-16T15:25:06.806Z,9.33
2023-04-16T15:26:08.725Z,9.28
2023-04-16T15:27:11.979Z,9.29
2023-04-16T15:28:14.219Z,9.28
2023-04-16T15:29:16.201Z,9.24
2023-04-16T15:30:18.230Z,9.21
2023-04-16T15:31:21.126Z,9.18
2023-04-16T15:32:23.140Z,9.17
2023-04-16T15:33:26.396Z,9.13
2023-04-16T15:34:28.460Z,9.10
2023-04-16T15:35:30.632Z,9.09
2023-04-16T15:36:32.694Z,9.05
2023-04-16T15:37:34.612Z,9.04
2023-04-16T15:38:36.651Z,9.03
2023-04-16T15:39:38.604Z,9.01
2023-04-16T15:40:41.306Z,8.99
2023-04-16T15:41:57.444Z,8.97
2023-04-16T15:43:03.028Z,8.95
2023-04-16T15:44:06.020Z,8.93
2023-04-16T15:45:07.993Z,8.89
2023-04-16T15:46:10.184Z,8.86
2023-04-16T15:47:12.342Z,8.84
2023-04-16T15:48:14.411Z,8.79
2023-04-16T15:49:16.472Z,8.76
2023-04-16T15:50:19.576Z,8.73
2023-04-16T15:51:21.400Z,8.72
2023-04-16T15:52:23.386Z,8.68
2023-04-16T15:53:25.295Z,8.65
2023-04-16T15:54:27.354Z,8.64
2023-04-16T15:55:29.381Z,8.62
2023-04-16T15:56:32.693Z,8.61
2023-04-16T15:57:34.597Z,8.57
2023-04-16T15:58:36.662Z,8.56
2023-04-16T15:59:38.584Z,8.52
2023-04-16T16:00:40.498Z,8.49
2023-04-16T16:01:42.422Z,8.48
2023-04-16T16:02:45.716Z,8.45
2023-04-16T16:03:47.995Z,8.43
2023-04-16T16:04:50.018Z,8.39
2023-04-16T16:05:51.976Z,8.39
2023-04-16T16:06:54.193Z,8.36
2023-04-16T16:07:57.445Z,8.34
2023-04-16T16:08:59.770Z,8.31
2023-04-16T16:10:02.020Z,8.31
2023-04-16T16:11:05.124Z,8.29
2023-04-16T16:12:07.037Z,8.27
2023-04-16T16:13:13.162Z,8.26
2023-04-16T16:14:16.793Z,8.23
2023-04-16T16:15:20.232Z,8.23
2023-04-16T16:16:22.268Z,8.20
2023-04-16T16:17:24.966Z,8.18
2023-04-16T16:18:26.892Z,8.15
2023-04-16T16:19:28.754Z,8.14
2023-04-16T16:20:30.697Z,8.12
2023-04-16T16:21:32.924Z,8.11
2023-04-16T16:22:35.006Z,8.09
2023-04-16T16:23:37.118Z,8.07
2023-04-16T16:24:39.358Z,8.04
2023-04-16T16:25:42.761Z,8.01
2023-04-16T16:26:44.659Z,8.00
2023-04-16T16:27:46.677Z,7.97
2023-04-16T16:28:48.578Z,7.95
2023-04-16T16:29:50.505Z,7.94
2023-04-16T16:30:54.895Z,7.91
2023-04-16T16:31:57.004Z,7.90
2023-04-16T16:32:59.008Z,7.88
2023-04-16T16:34:01.261Z,7.87
2023-04-16T16:35:03.562Z,7.86
2023-04-16T16:36:09.681Z,7.84
2023-04-16T16:37:11.530Z,7.82
2023-04-16T16:38:13.399Z,7.78
2023-04-16T16:39:15.215Z,7.76
2023-04-16T16:40:17.213Z,7.75
2023-04-16T16:41:19.191Z,7.74
2023-04-16T16:42:21.214Z,7.72
2023-04-16T16:43:23.177Z,7.69
2023-04-16T16:44:25.237Z,7.68
2023-04-16T16:45:27.339Z,7.67
2023-04-16T16:46:29.696Z,7.64
2023-04-16T16:47:32.508Z,7.65
2023-04-16T16:48:34.322Z,7.63
2023-04-16T16:49:36.153Z,7.61
2023-04-16T16:50:38.154Z,7.61
2023-04-16T16:51:40.255Z,7.59
2023-04-16T16:52:42.231Z,7.58
2023-04-16T16:53:44.058Z,7.55
2023-04-16T16:54:45.983Z,7.51
2023-04-16T16:55:47.835Z,7.49
2023-04-16T16:56:49.694Z,7.46
2023-04-16T16:57:51.708Z,7.43
2023-04-16T16:58:53.876Z,7.42
2023-04-16T16:59:55.742Z,7.41
2023-04-16T17:00:57.897Z,7.39
2023-04-16T17:01:59.792Z,7.38
2023-04-16T17:03:02.150Z,7.38
2023-04-16T17:04:04.367Z,7.38
2023-04-16T17:05:07.730Z,7.36
2023-04-16T17:06:09.727Z,7.35
2023-04-16T17:07:12.048Z,7.33
2023-04-16T17:08:14.098Z,7.32
2023-04-16T17:09:16.953Z,7.33
2023-04-16T17:10:22.131Z,7.30
2023-04-16T17:11:27.077Z,7.30
2023-04-16T17:12:29.116Z,7.27
2023-04-16T17:13:32.840Z,7.25
2023-04-16T17:14:35.531Z,7.24
2023-04-16T17:15:37.442Z,7.22
2023-04-16T17:16:39.486Z,7.20
2023-04-16T17:17:41.767Z,7.20
2023-04-16T17:18:43.809Z,7.20
2023-04-16T17:19:45.630Z,7.21
2023-04-16T17:20:47.405Z,7.21
2023-04-16T17:21:49.461Z,7.20
2023-04-16T17:22:51.315Z,7.17
2023-04-16T17:23:54.567Z,7.17
2023-04-16T17:24:56.384Z,7.17
2023-04-16T17:25:59.924Z,7.17
2023-04-16T17:27:02.253Z,7.16
2023-04-16T17:28:05.196Z,7.18
2023-04-16T17:29:07.217Z,7.16
2023-04-16T17:30:09.597Z,7.15
2023-04-16T17:31:11.990Z,7.14
2023-04-16T17:32:14.003Z,7.12
2023-04-16T17:33:17.330Z,7.11
2023-04-16T17:34:20.697Z,7.11
2023-04-16T17:35:22.712Z,7.09
2023-04-16T17:36:25.526Z,7.08
2023-04-16T17:37:27.539Z,7.07
2023-04-16T17:38:29.434Z,7.05
2023-04-16T17:39:31.304Z,7.06
2023-04-16T17:40:33.329Z,7.03
2023-04-16T17:41:35.285Z,7.03
2023-04-16T17:42:37.390Z,7.02
2023-04-16T17:43:39.194Z,7.01
2023-04-16T17:44:41.159Z,6.99
2023-04-16T17:45:43.058Z,6.98
2023-04-16T17:46:44.947Z,6.96
2023-04-16T17:47:46.845Z,6.96
2023-04-16T17:48:49.014Z,6.96
2023-04-16T17:49:54.647Z,6.96
2023-04-16T17:50:56.681Z,6.95
2023-04-16T17:51:58.627Z,6.94
2023-04-16T17:53:03.906Z,6.96
2023-04-16T17:54:07.290Z,6.92
2023-04-16T17:55:11.577Z,6.92
2023-04-16T17:56:14.220Z,6.90
2023-04-16T17:57:16.559Z,6.89
2023-04-16T17:58:18.474Z,6.86
2023-04-16T17:59:20.324Z,6.85
2023-04-16T18:00:22.381Z,6.84
2023-04-16T18:01:24.431Z,6.83
2023-04-16T18:02:26.662Z,6.82
2023-04-16T18:03:29.188Z,6.80
2023-04-16T18:04:31.450Z,6.78
2023-04-16T18:05:33.391Z,6.76
2023-04-16T18:06:35.699Z,6.75
2023-04-16T18:07:39.249Z,6.74
2023-04-16T18:08:41.135Z,6.72
2023-04-16T18:09:43.218Z,6.72
2023-04-16T18:10:45.114Z,6.71
2023-04-16T18:11:47.331Z,6.70
2023-04-16T18:12:49.286Z,6.68
2023-04-16T18:13:53.695Z,6.67
2023-04-16T18:14:55.647Z,6.65
2023-04-16T18:15:57.498Z,6.67
2023-04-16T18:17:00.035Z,6.67
2023-04-16T18:18:01.909Z,6.65
2023-04-16T18:19:03.940Z,6.63
2023-04-16T18:20:07.119Z,6.60
2023-04-16T18:21:09.315Z,6.60
2023-04-16T18:22:13.330Z,6.59
2023-04-16T18:23:15.137Z,6.57
2023-04-16T18:24:16.999Z,6.56
2023-04-16T18:25:21.034Z,6.56
2023-04-16T18:26:35.539Z,6.57
2023-04-16T18:27:38.060Z,6.58
2023-04-16T18:28:40.024Z,6.56
2023-04-16T18:29:45.018Z,6.54
2023-04-16T18:30:47.210Z,6.54
2023-04-16T18:31:50.665Z,6.52
2023-04-16T18:33:16.464Z,6.48
2023-04-16T18:34:14.363Z,6.47
2023-04-16T18:35:16.501Z,6.44
2023-04-16T18:36:18.413Z,6.42
2023-04-16T18:37:20.352Z,6.37
2023-04-16T18:38:22.152Z,6.36
2023-04-16T18:39:24.107Z,6.33
2023-04-16T18:40:26.168Z,6.30
2023-04-16T18:41:28.159Z,6.26
2023-04-16T18:42:29.969Z,6.24
2023-04-16T18:43:31.792Z,6.18
2023-04-16T18:44:34.312Z,6.15
2023-04-16T18:45:36.535Z,6.11
2023-04-16T18:46:38.373Z,6.08
2023-04-16T18:47:41.397Z,6.07
2023-04-16T18:48:45.252Z,6.03
2023-04-16T18:49:47.172Z,5.98
2023-04-16T18:50:48.961Z,5.94
2023-04-16T18:51:51.176Z,5.92
2023-04-16T18:52:53.171Z,5.89
2023-04-16T18:53:55.051Z,5.85
2023-04-16T18:54:56.918Z,5.82
2023-04-16T18:55:59.589Z,5.81
2023-04-16T18:57:02.133Z,5.80
2023-04-16T18:58:04.040Z,5.78
2023-04-16T18:59:05.936Z,5.78
2023-04-16T19:00:12.639Z,5.80
2023-04-16T19:01:14.705Z,5.86
2023-04-16T19:02:16.632Z,5.92
2023-04-16T19:03:18.520Z,5.99
2023-04-16T19:04:21.071Z,6.01
2023-04-16T19:05:23.143Z,6.00
2023-04-16T19:06:25.021Z,5.98
2023-04-16T19:07:26.970Z,5.99
2023-04-16T19:08:28.821Z,6.02
2023-04-16T19:09:30.861Z,6.02
2023-04-16T19:10:32.848Z,6.01
2023-04-16T19:11:34.700Z,5.95
2023-04-16T19:12:36.622Z,5.93
2023-04-16T19:13:39.330Z,5.94
2023-04-16T19:14:41.174Z,5.92
2023-04-16T19:15:43.029Z,5.92
2023-04-16T19:16:44.887Z,5.91
2023-04-16T19:17:47.288Z,5.87
2023-04-16T19:18:49.206Z,5.87
2023-04-16T19:19:51.044Z,5.83
2023-04-16T19:20:59.631Z,5.83
2023-04-16T19:22:01.664Z,5.79
2023-04-16T19:23:05.741Z,5.78
2023-04-16T19:24:07.520Z,5.76
2023-04-16T19:25:09.848Z,5.73
2023-04-16T19:26:11.673Z,5.71
2023-04-16T19:27:13.537Z,5.69
2023-04-16T19:28:15.396Z,5.66
2023-04-16T19:29:18.295Z,5.65
2023-04-16T19:30:20.207Z,5.65
2023-04-16T19:31:22.047Z,5.62
2023-04-16T19:32:24.440Z,5.60
2023-04-16T19:33:26.314Z,5.58
2023-04-16T19:34:28.281Z,5.60
2023-04-16T19:35:30.306Z,5.59
2023-04-16T19:36:32.837Z,5.59
2023-04-16T19:37:34.674Z,5.60
2023-04-16T19:38:36.507Z,5.57
2023-04-16T19:39:38.725Z,5.57
2023-04-16T19:40:41.159Z,5.61
2023-04-16T19:41:43.112Z,5.63
2023-04-16T19:42:45.509Z,5.62
2023-04-16T19:43:47.372Z,5.60
2023-04-16T19:44:49.189Z,5.59
2023-04-16T19:45:53.525Z,5.58
2023-04-16T19:46:55.871Z,5.58
2023-04-16T19:47:58.154Z,5.57
2023-04-16T19:49:00.083Z,5.52
2023-04-16T19:50:02.335Z,5.47
2023-04-16T19:51:05.766Z,5.42
2023-04-16T19:52:07.683Z,5.39
2023-04-16T19:53:09.858Z,5.33
2023-04-16T19:54:13.275Z,5.31
2023-04-16T19:55:15.507Z,5.31
2023-04-16T19:56:17.749Z,5.30
2023-04-16T19:57:19.684Z,5.31
2023-04-16T19:58:21.536Z,5.33
2023-04-16T19:59:23.469Z,5.33
2023-04-16T20:00:25.491Z,5.34
2023-04-16T20:01:28.268Z,5.35
2023-04-16T20:02:30.241Z,5.35
2023-04-16T20:03:32.196Z,5.35
2023-04-16T20:04:35.197Z,5.35
2023-04-16T20:05:37.329Z,5.37
2023-04-16T20:06:39.178Z,5.37
2023-04-16T20:07:41.087Z,5.37
2023-04-16T20:08:44.605Z,5.36
2023-04-16T20:09:52.049Z,5.34
2023-04-16T20:10:54.832Z,5.34
2023-04-16T20:11:58.100Z,5.31
2023-04-16T20:12:59.913Z,5.31
2023-04-16T20:14:01.843Z,5.29
2023-04-16T20:15:04.542Z,5.31
2023-04-16T20:16:09.442Z,5.31
2023-04-16T20:17:11.365Z,5.30
2023-04-16T20:18:13.685Z,5.31
2023-04-16T20:19:17.196Z,5.30
2023-04-16T20:20:19.224Z,5.31
2023-04-16T20:21:21.768Z,5.29
2023-04-16T20:22:23.654Z,5.26
2023-04-16T20:23:25.570Z,5.23
2023-04-16T20:24:28.320Z,5.20
2023-04-16T20:25:30.154Z,5.18
2023-04-16T20:26:34.213Z,5.17
2023-04-16T20:27:36.434Z,5.14
2023-04-16T20:28:38.266Z,5.11
2023-04-16T20:29:40.212Z,5.08
2023-04-16T20:30:42.449Z,5.07
2023-04-16T20:31:46.123Z,5.07
2023-04-16T20:32:48.419Z,5.06
2023-04-16T20:33:50.364Z,5.05
2023-04-16T20:34:52.934Z,5.04
2023-04-16T20:35:55.016Z,5.03
2023-04-16T20:36:58.224Z,5.04
2023-04-16T20:38:00.785Z,5.04
2023-04-16T20:39:02.687Z,5.06
2023-04-16T20:40:07.983Z,5.07
2023-04-16T20:41:14.669Z,5.05
2023-04-16T20:42:17.056Z,5.05
2023-04-16T20:43:18.921Z,5.02
2023-04-16T20:44:26.225Z,4.95
2023-04-16T20:45:38.136Z,4.87
2023-04-16T20:46:40.367Z,4.83
2023-04-16T20:47:43.711Z,4.80
2023-04-16T20:48:45.752Z,4.77
2023-04-16T20:49:47.650Z,4.75
2023-04-16T20:50:49.401Z,4.74
2023-04-16T20:51:51.506Z,4.73
2023-04-16T20:52:53.441Z,4.71
2023-04-16T20:53:55.639Z,4.68
2023-04-16T20:54:57.957Z,4.67
2023-04-16T20:56:00.637Z,4.67
2023-04-16T20:57:04.892Z,4.68
2023-04-16T20:58:07.125Z,4.72
2023-04-16T20:59:09.885Z,4.75
2023-04-16T21:00:12.479Z,4.78
2023-04-16T21:01:14.268Z,4.78
2023-04-16T21:02:16.514Z,4.79
2023-04-16T21:03:19.172Z,4.81
2023-04-16T21:04:21.367Z,4.84
2023-04-16T21:05:23.984Z,4.83
2023-04-16T21:06:25.832Z,4.81
2023-04-16T21:07:27.828Z,4.83
2023-04-16T21:08:29.775Z,4.83
2023-04-16T21:09:31.810Z,4.86
2023-04-16T21:10:33.662Z,4.86
2023-04-16T21:11:35.978Z,4.87
2023-04-16T21:12:37.929Z,4.85
2023-04-16T21:13:39.722Z,4.83
2023-04-16T21:14:41.635Z,4.80
2023-04-16T21:15:45.676Z,4.78
2023-04-16T21:16:47.387Z,4.77
2023-04-16T21:17:49.225Z,4.73
2023-04-16T21:18:51.060Z,4.71
2023-04-16T21:19:53.027Z,4.69
2023-04-16T21:20:56.086Z,4.68
2023-04-16T21:21:58.068Z,4.66
2023-04-16T21:23:00.440Z,4.65
2023-04-16T21:24:02.312Z,4.61
2023-04-16T21:25:04.572Z,4.58
2023-04-16T21:26:06.360Z,4.55
2023-04-16T21:27:08.314Z,4.51
2023-04-16T21:28:10.145Z,4.47
2023-04-16T21:29:12.250Z,4.44
2023-04-16T21:30:14.773Z,4.41
2023-04-16T21:31:16.967Z,4.37
2023-04-16T21:32:18.920Z,4.34
2023-04-16T21:33:20.944Z,4.31
2023-04-16T21:34:22.742Z,4.30
2023-04-16T21:35:24.661Z,4.29
2023-04-16T21:36:27.650Z,4.28
2023-04-16T21:37:29.604Z,4.32
2023-04-16T21:38:31.476Z,4.33
2023-04-16T21:39:33.317Z,4.33
2023-04-16T21:40:35.143Z,4.34
2023-04-16T21:41:37.229Z,4.30
2023-04-16T21:42:42.494Z,4.26
2023-04-16T21:43:44.329Z,4.20
2023-04-16T21:44:46.633Z,4.18
2023-04-16T21:45:48.437Z,4.18
2023-04-16T21:46:50.561Z,4.17
2023-04-16T21:47:52.540Z,4.15
2023-04-16T21:48:54.438Z,4.13
2023-04-16T21:49:56.261Z,4.15
2023-04-16T21:51:00.150Z,4.14
2023-04-16T21:52:02.536Z,4.14
2023-04-16T21:53:06.698Z,4.14
2023-04-16T21:54:08.776Z,4.09
2023-04-16T21:55:10.620Z,4.02
2023-04-16T21:56:12.586Z,3.97
2023-04-16T21:57:14.844Z,3.95
2023-04-16T21:58:16.817Z,3.96
2023-04-16T21:59:18.742Z,3.95
2023-04-16T22:00:21.321Z,3.95
2023-04-16T22:01:23.400Z,3.92
2023-04-16T22:02:25.533Z,3.88
2023-04-16T22:03:28.151Z,3.84
2023-04-16T22:04:37.522Z,3.78
2023-04-16T22:05:39.438Z,3.74
2023-04-16T22:06:41.324Z,3.72
2023-04-16T22:07:43.253Z,3.67
2023-04-16T22:08:45.120Z,3.67
2023-04-16T22:09:46.993Z,3.65
2023-04-16T22:10:48.799Z,3.61
2023-04-16T22:11:52.643Z,3.61
2023-04-16T22:12:55.023Z,3.62
2023-04-16T22:13:58.027Z,3.69
2023-04-16T22:15:02.884Z,3.72
2023-04-16T22:16:05.816Z,3.74
2023-04-16T22:17:09.496Z,3.70
2023-04-16T22:18:11.747Z,3.62
2023-04-16T22:19:14.228Z,3.55
2023-04-16T22:20:16.617Z,3.42
2023-04-16T22:21:18.451Z,3.31
2023-04-16T22:22:21.922Z,3.24
2023-04-16T22:23:25.302Z,3.17
2023-04-16T22:24:28.319Z,3.11
2023-04-16T22:25:30.120Z,3.05
2023-04-16T22:26:31.937Z,3.00
2023-04-16T22:27:34.299Z,2.95
2023-04-16T22:28:36.187Z,2.91
2023-04-16T22:29:38.268Z,2.89
2023-04-16T22:30:40.319Z,2.89
2023-04-16T22:31:42.183Z,2.89
2023-04-16T22:32:44.123Z,2.91
2023-04-16T22:33:45.950Z,2.97
2023-04-16T22:34:47.782Z,3.01
2023-04-16T22:35:49.718Z,3.06
2023-04-16T22:36:51.514Z,3.14
2023-04-16T22:37:53.336Z,3.14
2023-04-16T22:38:55.335Z,3.11
2023-04-16T22:39:57.110Z,3.05
2023-04-16T22:40:59.150Z,3.00
2023-04-16T22:42:01.976Z,2.95
2023-04-16T22:43:03.991Z,2.90
2023-04-16T22:44:06.011Z,2.83
2023-04-16T22:45:08.549Z,2.80
2023-04-16T22:46:10.466Z,2.77
2023-04-16T22:47:12.322Z,2.73
2023-04-16T22:48:14.234Z,2.70
2023-04-16T22:49:16.024Z,2.69
2023-04-16T22:50:18.580Z,2.70
2023-04-16T22:51:24.354Z,2.73
2023-04-16T22:52:27.576Z,2.75
2023-04-16T22:53:29.369Z,2.75
2023-04-16T22:54:31.565Z,2.77
2023-04-16T22:55:33.463Z,2.76
2023-04-16T22:56:35.879Z,2.79
2023-04-16T22:57:37.684Z,2.84
2023-04-16T22:58:39.751Z,2.88
2023-04-16T22:59:41.592Z,2.91
2023-04-16T23:00:43.647Z,2.93
2023-04-16T23:01:45.637Z,2.93
2023-04-16T23:02:47.992Z,2.89
2023-04-16T23:03:50.052Z,2.84
2023-04-16T23:04:51.867Z,2.78
2023-04-16T23:05:53.781Z,2.73
2023-04-16T23:06:55.948Z,2.65
2023-04-16T23:07:57.789Z,2.59
2023-04-16T23:08:59.691Z,2.55
2023-04-16T23:10:01.586Z,2.51
2023-04-16T23:11:03.767Z,2.49
2023-04-16T23:12:06.043Z,2.49
2023-04-16T23:13:07.879Z,2.49
2023-04-16T23:14:09.866Z,2.50
2023-04-16T23:15:11.795Z,2.49
2023-04-16T23:16:13.856Z,2.50
2023-04-16T23:17:15.911Z,2.50
2023-04-16T23:18:17.864Z,2.52
2023-04-16T23:19:19.729Z,2.57
2023-04-16T23:20:21.697Z,2.59
2023-04-16T23:21:23.637Z,2.54
2023-04-16T23:22:25.474Z,2.48
2023-04-16T23:23:27.394Z,2.41
2023-04-16T23:24:29.306Z,2.35
2023-04-16T23:25:31.148Z,2.28
2023-04-16T23:26:33.091Z,2.22
2023-04-16T23:27:35.887Z,2.16
2023-04-16T23:28:37.724Z,2.16
2023-04-16T23:29:39.846Z,2.16
2023-04-16T23:30:41.703Z,2.20
2023-04-16T23:31:43.574Z,2.22
2023-04-16T23:32:45.511Z,2.25
2023-04-16T23:33:47.666Z,2.25
2023-04-16T23:34:49.617Z,2.22
2023-04-16T23:35:51.515Z,2.18
2023-04-16T23:36:53.553Z,2.16
2023-04-16T23:37:55.412Z,2.19
2023-04-16T23:38:57.243Z,2.21
2023-04-16T23:39:59.024Z,2.26
2023-04-16T23:41:01.056Z,2.31
2023-04-16T23:42:03.308Z,2.35
2023-04-16T23:43:05.148Z,2.38
2023-04-16T23:44:06.954Z,2.40
2023-04-16T23:45:09.810Z,2.44
2023-04-16T23:46:12.054Z,2.46
2023-04-16T23:47:13.906Z,2.49
2023-04-16T23:48:15.923Z,2.50
2023-04-16T23:49:17.817Z,2.47
2023-04-16T23:50:19.686Z,2.46
2023-04-16T23:51:21.674Z,2.45
2023-04-16T23:52:23.469Z,2.45
2023-04-16T23:53:25.643Z,2.44
2023-04-16T23:54:27.562Z,2.40
2023-04-16T23:55:29.450Z,2.35
2023-04-16T23:56:31.543Z,2.33
2023-04-16T23:57:33.331Z,2.33
2023-04-16T23:58:35.256Z,2.28
2023-04-16T23:59:37.023Z,2.25
